sensor_id;sensor_type;location;lat;lon;timestamp;pressure;altitude;pressure_sealevel;temperature;humidity
4398;BME280;2213;49.720;7.296;2023-09-19T00:00:00;97612.09;;;17.91;100.00
4398;BME280;2213;49.720;7.296;2023-09-19T00:02:30;97606.53;;;17.92;100.00
4398;BME280;2213;49.720;7.296;2023-09-19T00:05:02;97610.78;;;17.93;100.00
4398;BME280;2213;49.720;7.296;2023-09-19T00:07:33;97610.97;;;17.87;100.00
4398;BME280;2213;49.720;7.296;2023-09-19T00:10:08;97611.47;;;17.84;100.00
4398;BME280;2213;49.720;7.296;2023-09-19T00:12:43;97613.03;;;17.85;100.00
4398;BME280;2213;49.720;7.296;2023-09-19T00:15:14;97617.78;;;17.83;100.00
4398;BME280;2213;49.720;7.296;2023-09-19T00:17:46;97617.22;;;17.81;100.00
4398;BME280;2213;49.720;7.296;2023-09-19T00:20:16;97620.09;;;17.79;100.00
4398;BME280;2213;49.720;7.296;2023-09-19T00:22:46;97624.59;;;17.79;100.00
4398;BME280;2213;49.720;7.296;2023-09-19T00:25:17;97634.88;;;17.75;100.00
4398;BME280;2213;49.720;7.296;2023-09-19T00:27:48;97632.44;;;17.74;100.00
4398;BME280;2213;49.720;7.296;2023-09-19T00:30:20;97647.22;;;17.70;100.00
4398;BME280;2213;49.720;7.296;2023-09-19T00:32:53;97641.84;;;17.65;100.00
4398;BME280;2213;49.720;7.296;2023-09-19T00:35:23;97646.81;;;17.61;100.00
4398;BME280;2213;49.720;7.296;2023-09-19T00:37:53;97651.19;;;17.55;100.00
4398;BME280;2213;49.720;7.296;2023-09-19T00:40:23;97648.47;;;17.50;100.00
4398;BME280;2213;49.720;7.296;2023-09-19T00:42:59;97656.34;;;17.45;100.00
4398;BME280;2213;49.720;7.296;2023-09-19T00:45:29;97672.19;;;17.45;100.00
4398;BME280;2213;49.720;7.296;2023-09-19T00:48:02;97677.94;;;17.42;100.00
4398;BME280;2213;49.720;7.296;2023-09-19T00:50:42;97678.41;;;17.39;100.00
4398;BME280;2213;49.720;7.296;2023-09-19T00:53:14;97677.88;;;17.37;100.00
4398;BME280;2213;49.720;7.296;2023-09-19T00:55:48;97682.28;;;17.32;100.00
4398;BME280;2213;49.720;7.296;2023-09-19T00:58:19;97677.94;;;17.26;100.00
4398;BME280;2213;49.720;7.296;2023-09-19T01:00:49;97674.41;;;17.20;100.00
4398;BME280;2213;49.720;7.296;2023-09-19T01:03:19;97676.94;;;17.15;100.00
4398;BME280;2213;49.720;7.296;2023-09-19T01:05:51;97683.19;;;17.09;100.00
4398;BME280;2213;49.720;7.296;2023-09-19T01:08:21;97688.16;;;17.05;100.00
4398;BME280;2213;49.720;7.296;2023-09-19T01:10:56;97690.56;;;17.07;100.00
4398;BME280;2213;49.720;7.296;2023-09-19T01:13:42;97692.06;;;17.03;100.00
4398;BME280;2213;49.720;7.296;2023-09-19T01:16:33;97703.00;;;16.95;100.00
4398;BME280;2213;49.720;7.296;2023-09-19T01:19:51;97698.13;;;16.87;100.00
4398;BME280;2213;49.720;7.296;2023-09-19T01:22:37;97697.06;;;16.88;100.00
4398;BME280;2213;49.720;7.296;2023-09-19T01:25:55;97696.41;;;16.81;100.00
4398;BME280;2213;49.720;7.296;2023-09-19T01:29:01;97700.31;;;16.78;100.00
4398;BME280;2213;49.720;7.296;2023-09-19T01:31:40;97702.72;;;16.80;100.00
4398;BME280;2213;49.720;7.296;2023-09-19T01:34:12;97701.47;;;16.71;100.00
4398;BME280;2213;49.720;7.296;2023-09-19T01:36:44;97702.44;;;16.65;100.00
4398;BME280;2213;49.720;7.296;2023-09-19T01:39:14;97708.41;;;16.60;100.00
4398;BME280;2213;49.720;7.296;2023-09-19T01:42:02;97704.19;;;16.59;100.00
4398;BME280;2213;49.720;7.296;2023-09-19T01:44:51;97707.47;;;16.54;100.00
4398;BME280;2213;49.720;7.296;2023-09-19T01:47:32;97713.69;;;16.48;100.00
4398;BME280;2213;49.720;7.296;2023-09-19T01:50:13;97716.53;;;16.47;100.00
4398;BME280;2213;49.720;7.296;2023-09-19T01:52:57;97725.50;;;16.46;100.00
4398;BME280;2213;49.720;7.296;2023-09-19T01:55:32;97731.38;;;16.36;100.00
4398;BME280;2213;49.720;7.296;2023-09-19T01:58:15;97728.72;;;16.36;100.00
4398;BME280;2213;49.720;7.296;2023-09-19T02:00:49;97724.94;;;16.32;100.00
4398;BME280;2213;49.720;7.296;2023-09-19T02:03:23;97726.78;;;16.32;100.00
4398;BME280;2213;49.720;7.296;2023-09-19T02:05:54;97731.50;;;16.30;100.00
4398;BME280;2213;49.720;7.296;2023-09-19T02:08:24;97728.63;;;16.31;100.00
4398;BME280;2213;49.720;7.296;2023-09-19T02:10:55;97728.63;;;16.31;100.00
4398;BME280;2213;49.720;7.296;2023-09-19T02:13:25;97718.97;;;16.25;100.00
4398;BME280;2213;49.720;7.296;2023-09-19T02:15:57;97718.63;;;16.22;100.00
4398;BME280;2213;49.720;7.296;2023-09-19T02:18:29;97730.34;;;16.26;100.00
4398;BME280;2213;49.720;7.296;2023-09-19T02:20:59;97723.09;;;16.21;100.00
4398;BME280;2213;49.720;7.296;2023-09-19T02:23:30;97737.47;;;16.14;100.00
4398;BME280;2213;49.720;7.296;2023-09-19T02:26:01;97736.06;;;16.11;100.00
4398;BME280;2213;49.720;7.296;2023-09-19T02:28:31;97726.91;;;16.14;100.00
4398;BME280;2213;49.720;7.296;2023-09-19T02:31:01;97736.53;;;16.08;100.00
4398;BME280;2213;49.720;7.296;2023-09-19T02:33:35;97728.63;;;16.08;100.00
4398;BME280;2213;49.720;7.296;2023-09-19T02:36:07;97738.16;;;16.09;100.00
4398;BME280;2213;49.720;7.296;2023-09-19T02:38:37;97736.53;;;16.08;100.00
4398;BME280;2213;49.720;7.296;2023-09-19T02:41:08;97732.28;;;16.07;100.00
4398;BME280;2213;49.720;7.296;2023-09-19T02:43:37;97731.97;;;16.03;100.00
4398;BME280;2213;49.720;7.296;2023-09-19T02:46:08;97738.47;;;16.01;100.00
4398;BME280;2213;49.720;7.296;2023-09-19T02:48:41;97725.53;;;15.99;100.00
4398;BME280;2213;49.720;7.296;2023-09-19T02:51:12;97731.03;;;15.98;100.00
4398;BME280;2213;49.720;7.296;2023-09-19T02:53:42;97726.22;;;15.95;100.00
4398;BME280;2213;49.720;7.296;2023-09-19T02:56:13;97734.59;;;15.92;100.00
4398;BME280;2213;49.720;7.296;2023-09-19T02:58:45;97731.81;;;15.87;100.00
4398;BME280;2213;49.720;7.296;2023-09-19T03:01:16;97736.63;;;15.90;100.00
4398;BME280;2213;49.720;7.296;2023-09-19T03:03:49;97740.88;;;15.91;100.00
4398;BME280;2213;49.720;7.296;2023-09-19T03:06:20;97739.28;;;15.90;100.00
4398;BME280;2213;49.720;7.296;2023-09-19T03:08:50;97743.53;;;15.91;100.00
4398;BME280;2213;49.720;7.296;2023-09-19T03:11:21;97751.75;;;15.83;100.00
4398;BME280;2213;49.720;7.296;2023-09-19T03:13:53;97742.16;;;15.88;100.00
4398;BME280;2213;49.720;7.296;2023-09-19T03:16:23;97744.00;;;15.88;100.00
4398;BME280;2213;49.720;7.296;2023-09-19T03:18:55;97748.59;;;15.92;100.00
4398;BME280;2213;49.720;7.296;2023-09-19T03:21:27;97748.59;;;15.92;100.00
4398;BME280;2213;49.720;7.296;2023-09-19T03:23:58;97746.16;;;15.91;100.00
4398;BME280;2213;49.720;7.296;2023-09-19T03:26:28;97748.25;;;15.89;100.00
4398;BME280;2213;49.720;7.296;2023-09-19T03:28:59;97761.19;;;15.90;100.00
4398;BME280;2213;49.720;7.296;2023-09-19T03:31:34;97757.72;;;15.90;100.00
4398;BME280;2213;49.720;7.296;2023-09-19T03:34:07;97752.56;;;15.83;100.00
4398;BME280;2213;49.720;7.296;2023-09-19T03:36:39;97760.25;;;15.85;100.00
4398;BME280;2213;49.720;7.296;2023-09-19T03:39:10;97761.41;;;15.89;100.00
4398;BME280;2213;49.720;7.296;2023-09-19T03:41:41;97758.19;;;15.87;100.00
4398;BME280;2213;49.720;7.296;2023-09-19T03:44:11;97762.44;;;15.88;100.00
4398;BME280;2213;49.720;7.296;2023-09-19T03:46:42;97755.00;;;15.85;100.00
4398;BME280;2213;49.720;7.296;2023-09-19T03:49:14;97758.66;;;15.84;100.00
4398;BME280;2213;49.720;7.296;2023-09-19T03:51:44;97756.13;;;15.77;100.00
4398;BME280;2213;49.720;7.296;2023-09-19T03:54:15;97753.84;;;15.81;100.00
4398;BME280;2213;49.720;7.296;2023-09-19T03:56:48;97757.63;;;15.85;100.00
4398;BME280;2213;49.720;7.296;2023-09-19T03:59:18;97753.03;;;15.80;100.00
4398;BME280;2213;49.720;7.296;2023-09-19T04:01:50;97747.41;;;15.77;100.00
4398;BME280;2213;49.720;7.296;2023-09-19T04:04:26;97754.84;;;15.80;100.00
4398;BME280;2213;49.720;7.296;2023-09-19T04:06:57;97748.91;;;15.84;100.00
4398;BME280;2213;49.720;7.296;2023-09-19T04:09:27;97750.28;;;15.87;100.00
4398;BME280;2213;49.720;7.296;2023-09-19T04:11:57;97757.03;;;15.83;100.00
4398;BME280;2213;49.720;7.296;2023-09-19T04:14:28;97747.09;;;15.85;100.00
4398;BME280;2213;49.720;7.296;2023-09-19T04:16:58;97745.72;;;15.82;100.00
4398;BME280;2213;49.720;7.296;2023-09-19T04:19:30;97744.31;;;15.80;100.00
4398;BME280;2213;49.720;7.296;2023-09-19T04:22:00;97748.09;;;15.84;100.00
4398;BME280;2213;49.720;7.296;2023-09-19T04:24:30;97746.13;;;15.79;100.00
4398;BME280;2213;49.720;7.296;2023-09-19T04:27:01;97748.66;;;15.74;100.00
4398;BME280;2213;49.720;7.296;2023-09-19T04:29:31;97749.59;;;15.68;100.00
4398;BME280;2213;49.720;7.296;2023-09-19T04:32:00;97753.25;;;15.67;100.00
4398;BME280;2213;49.720;7.296;2023-09-19T04:34:33;97753.25;;;15.67;100.00
4398;BME280;2213;49.720;7.296;2023-09-19T04:37:03;97760.13;;;15.68;100.00
4398;BME280;2213;49.720;7.296;2023-09-19T04:39:33;97759.53;;;15.66;100.00
4398;BME280;2213;49.720;7.296;2023-09-19T04:42:06;97769.16;;;15.60;100.00
4398;BME280;2213;49.720;7.296;2023-09-19T04:44:35;97752.53;;;15.60;100.00
4398;BME280;2213;49.720;7.296;2023-09-19T04:47:06;97766.28;;;15.62;100.00
4398;BME280;2213;49.720;7.296;2023-09-19T04:49:38;97763.09;;;15.60;100.00
4398;BME280;2213;49.720;7.296;2023-09-19T04:52:10;97769.63;;;15.57;100.00
4398;BME280;2213;49.720;7.296;2023-09-19T04:54:45;97772.91;;;15.53;100.00
4398;BME280;2213;49.720;7.296;2023-09-19T04:57:19;97775.34;;;15.54;100.00
4398;BME280;2213;49.720;7.296;2023-09-19T04:59:50;97789.75;;;15.52;100.00
4398;BME280;2213;49.720;7.296;2023-09-19T05:02:20;97791.22;;;15.48;100.00
4398;BME280;2213;49.720;7.296;2023-09-19T05:04:51;97796.69;;;15.46;100.00
4398;BME280;2213;49.720;7.296;2023-09-19T05:07:21;97804.19;;;15.49;100.00
4398;BME280;2213;49.720;7.296;2023-09-19T05:09:54;97807.84;;;15.48;100.00
4398;BME280;2213;49.720;7.296;2023-09-19T05:12:25;97819.41;;;15.47;100.00
4398;BME280;2213;49.720;7.296;2023-09-19T05:14:56;97823.66;;;15.48;100.00
4398;BME280;2213;49.720;7.296;2023-09-19T05:17:26;97817.22;;;15.44;100.00
4398;BME280;2213;49.720;7.296;2023-09-19T05:19:57;97820.22;;;15.48;100.00
4398;BME280;2213;49.720;7.296;2023-09-19T05:22:28;97816.09;;;15.52;100.00
4398;BME280;2213;49.720;7.296;2023-09-19T05:24:59;97828.84;;;15.55;100.00
4398;BME280;2213;49.720;7.296;2023-09-19T05:27:32;97830.91;;;15.53;100.00
4398;BME280;2213;49.720;7.296;2023-09-19T05:30:04;97822.53;;;15.56;100.00
4398;BME280;2213;49.720;7.296;2023-09-19T05:32:35;97825.88;;;15.51;100.00
4398;BME280;2213;49.720;7.296;2023-09-19T05:35:07;97831.56;;;15.48;100.00
4398;BME280;2213;49.720;7.296;2023-09-19T05:37:38;97835.81;;;15.49;100.00
4398;BME280;2213;49.720;7.296;2023-09-19T05:40:11;97837.84;;;15.47;100.00
4398;BME280;2213;49.720;7.296;2023-09-19T05:42:42;97826.16;;;15.43;100.00
4398;BME280;2213;49.720;7.296;2023-09-19T05:45:13;97826.72;;;15.45;100.00
4398;BME280;2213;49.720;7.296;2023-09-19T05:47:50;97833.03;;;15.44;100.00
4398;BME280;2213;49.720;7.296;2023-09-19T05:50:25;97832.56;;;15.47;100.00
4398;BME280;2213;49.720;7.296;2023-09-19T05:52:54;97826.34;;;15.42;100.00
4398;BME280;2213;49.720;7.296;2023-09-19T05:55:25;97826.59;;;15.40;100.00
4398;BME280;2213;49.720;7.296;2023-09-19T05:57:57;97832.66;;;15.41;100.00
4398;BME280;2213;49.720;7.296;2023-09-19T06:00:26;97834.25;;;15.42;100.00
4398;BME280;2213;49.720;7.296;2023-09-19T06:02:59;97835.97;;;15.36;100.00
4398;BME280;2213;49.720;7.296;2023-09-19T06:05:30;97842.03;;;15.37;100.00
4398;BME280;2213;49.720;7.296;2023-09-19T06:08:01;97847.66;;;15.40;100.00
4398;BME280;2213;49.720;7.296;2023-09-19T06:10:36;97845.03;;;15.40;100.00
4398;BME280;2213;49.720;7.296;2023-09-19T06:13:06;97850.88;;;15.42;100.00
4398;BME280;2213;49.720;7.296;2023-09-19T06:15:38;97844.59;;;15.43;100.00
4398;BME280;2213;49.720;7.296;2023-09-19T06:18:11;97851.53;;;15.38;100.00
4398;BME280;2213;49.720;7.296;2023-09-19T06:20:49;97866.31;;;15.39;100.00
4398;BME280;2213;49.720;7.296;2023-09-19T06:23:21;97868.31;;;15.43;100.00
4398;BME280;2213;49.720;7.296;2023-09-19T06:25:51;97876.06;;;15.38;100.00
4398;BME280;2213;49.720;7.296;2023-09-19T06:28:21;97878.03;;;15.43;100.00
4398;BME280;2213;49.720;7.296;2023-09-19T06:30:53;97872.72;;;15.49;100.00
4398;BME280;2213;49.720;7.296;2023-09-19T06:33:23;97891.75;;;15.51;100.00
4398;BME280;2213;49.720;7.296;2023-09-19T06:35:56;97898.78;;;15.57;100.00
4398;BME280;2213;49.720;7.296;2023-09-19T06:38:28;97891.06;;;15.56;100.00
4398;BME280;2213;49.720;7.296;2023-09-19T06:40:58;97898.06;;;15.50;100.00
4398;BME280;2213;49.720;7.296;2023-09-19T06:43:30;97901.50;;;15.51;100.00
4398;BME280;2213;49.720;7.296;2023-09-19T06:46:02;97904.03;;;15.57;100.00
4398;BME280;2213;49.720;7.296;2023-09-19T06:48:32;97914.34;;;15.59;100.00
4398;BME280;2213;49.720;7.296;2023-09-19T06:51:04;97909.69;;;15.61;100.00
4398;BME280;2213;49.720;7.296;2023-09-19T06:53:34;97922.69;;;15.56;100.00
4398;BME280;2213;49.720;7.296;2023-09-19T06:56:04;97925.94;;;15.58;100.00
4398;BME280;2213;49.720;7.296;2023-09-19T06:58:34;97930.78;;;15.61;100.00
4398;BME280;2213;49.720;7.296;2023-09-19T07:01:06;97937.56;;;15.69;100.00
4398;BME280;2213;49.720;7.296;2023-09-19T07:03:37;97932.50;;;15.67;100.00
4398;BME280;2213;49.720;7.296;2023-09-19T07:06:10;97935.66;;;15.76;100.00
4398;BME280;2213;49.720;7.296;2023-09-19T07:08:40;97931.97;;;15.77;100.00
4398;BME280;2213;49.720;7.296;2023-09-19T07:11:12;97943.91;;;15.79;100.00
4398;BME280;2213;49.720;7.296;2023-09-19T07:13:42;97942.53;;;15.77;100.00
4398;BME280;2213;49.720;7.296;2023-09-19T07:16:13;97943.22;;;15.72;100.00
4398;BME280;2213;49.720;7.296;2023-09-19T07:18:55;97954.31;;;15.74;100.00
4398;BME280;2213;49.720;7.296;2023-09-19T07:21:28;97958.13;;;15.78;100.00
4398;BME280;2213;49.720;7.296;2023-09-19T07:24:00;97957.44;;;15.83;100.00
4398;BME280;2213;49.720;7.296;2023-09-19T07:26:30;97962.31;;;15.86;100.00
4398;BME280;2213;49.720;7.296;2023-09-19T07:29:00;97976.16;;;15.81;100.00
4398;BME280;2213;49.720;7.296;2023-09-19T07:31:30;97975.69;;;15.84;100.00
4398;BME280;2213;49.720;7.296;2023-09-19T07:33:59;97985.06;;;15.80;100.00
4398;BME280;2213;49.720;7.296;2023-09-19T07:36:29;97981.78;;;15.85;100.00
4398;BME280;2213;49.720;7.296;2023-09-19T07:39:00;97993.72;;;15.87;100.00
4398;BME280;2213;49.720;7.296;2023-09-19T07:41:49;97994.31;;;15.89;100.00
4398;BME280;2213;49.720;7.296;2023-09-19T07:44:18;98006.69;;;15.89;100.00
4398;BME280;2213;49.720;7.296;2023-09-19T07:46:48;98000.97;;;15.92;100.00
4398;BME280;2213;49.720;7.296;2023-09-19T07:49:19;98002.78;;;15.91;100.00
4398;BME280;2213;49.720;7.296;2023-09-19T07:51:52;98005.63;;;15.90;100.00
4398;BME280;2213;49.720;7.296;2023-09-19T07:54:23;98002.59;;;15.93;100.00
4398;BME280;2213;49.720;7.296;2023-09-19T07:56:53;98011.28;;;15.93;100.00
4398;BME280;2213;49.720;7.296;2023-09-19T07:59:23;98006.97;;;15.99;100.00
4398;BME280;2213;49.720;7.296;2023-09-19T08:01:54;98000.66;;;16.00;100.00
4398;BME280;2213;49.720;7.296;2023-09-19T08:04:23;98009.97;;;16.02;100.00
4398;BME280;2213;49.720;7.296;2023-09-19T08:06:55;98010.78;;;16.03;100.00
4398;BME280;2213;49.720;7.296;2023-09-19T08:09:26;98007.09;;;16.04;100.00
4398;BME280;2213;49.720;7.296;2023-09-19T08:12:01;98008.94;;;16.03;100.00
4398;BME280;2213;49.720;7.296;2023-09-19T08:14:33;98014.56;;;16.07;100.00
4398;BME280;2213;49.720;7.296;2023-09-19T08:17:03;98013.63;;;16.01;100.00
4398;BME280;2213;49.720;7.296;2023-09-19T08:19:35;98007.78;;;15.99;100.00
4398;BME280;2213;49.720;7.296;2023-09-19T08:22:11;98021.31;;;16.03;100.00
4398;BME280;2213;49.720;7.296;2023-09-19T08:24:41;98018.44;;;16.04;100.00
4398;BME280;2213;49.720;7.296;2023-09-19T08:27:11;98024.44;;;16.11;100.00
4398;BME280;2213;49.720;7.296;2023-09-19T08:29:43;98030.16;;;16.08;100.00
4398;BME280;2213;49.720;7.296;2023-09-19T08:32:13;98030.16;;;16.08;100.00
4398;BME280;2213;49.720;7.296;2023-09-19T08:34:44;98035.81;;;16.12;100.00
4398;BME280;2213;49.720;7.296;2023-09-19T08:37:15;98031.34;;;16.13;100.00
4398;BME280;2213;49.720;7.296;2023-09-19T08:39:46;98032.72;;;16.15;100.00
4398;BME280;2213;49.720;7.296;2023-09-19T08:42:16;98035.97;;;16.17;100.00
4398;BME280;2213;49.720;7.296;2023-09-19T08:44:48;98041.81;;;16.19;100.00
4398;BME280;2213;49.720;7.296;2023-09-19T08:47:28;98041.38;;;16.22;100.00
4398;BME280;2213;49.720;7.296;2023-09-19T08:50:12;98044.28;;;16.14;100.00
4398;BME280;2213;49.720;7.296;2023-09-19T08:52:52;98047.63;;;16.09;100.00
4398;BME280;2213;49.720;7.296;2023-09-19T08:55:29;98041.28;;;16.10;100.00
4398;BME280;2213;49.720;7.296;2023-09-19T08:58:03;98038.91;;;16.09;100.00
4398;BME280;2213;49.720;7.296;2023-09-19T09:00:35;98055.81;;;16.01;100.00
4398;BME280;2213;49.720;7.296;2023-09-19T09:03:09;98051.44;;;15.95;100.00
4398;BME280;2213;49.720;7.296;2023-09-19T09:05:43;98035.16;;;15.98;100.00
4398;BME280;2213;49.720;7.296;2023-09-19T09:08:18;98042.56;;;16.08;100.00
4398;BME280;2213;49.720;7.296;2023-09-19T09:10:50;98043.28;;;16.15;100.00
4398;BME280;2213;49.720;7.296;2023-09-19T09:13:21;98040.19;;;16.18;100.00
4398;BME280;2213;49.720;7.296;2023-09-19T09:15:53;98028.63;;;16.19;100.00
4398;BME280;2213;49.720;7.296;2023-09-19T09:18:22;98026.50;;;16.28;100.00
4398;BME280;2213;49.720;7.296;2023-09-19T09:20:51;98029.13;;;16.28;100.00
4398;BME280;2213;49.720;7.296;2023-09-19T09:23:24;98029.03;;;16.34;100.00
4398;BME280;2213;49.720;7.296;2023-09-19T09:25:59;98031.78;;;16.39;100.00
4398;BME280;2213;49.720;7.296;2023-09-19T09:28:32;98037.66;;;16.41;100.00
4398;BME280;2213;49.720;7.296;2023-09-19T09:31:03;98036.97;;;16.46;100.00
4398;BME280;2213;49.720;7.296;2023-09-19T09:33:37;98034.03;;;16.54;100.00
4398;BME280;2213;49.720;7.296;2023-09-19T09:36:08;98039.75;;;16.51;100.00
4398;BME280;2213;49.720;7.296;2023-09-19T09:38:48;98042.97;;;16.53;100.00
4398;BME280;2213;49.720;7.296;2023-09-19T09:41:19;98040.56;;;16.51;100.00
4398;BME280;2213;49.720;7.296;2023-09-19T09:43:56;98048.03;;;16.54;100.00
4398;BME280;2213;49.720;7.296;2023-09-19T09:46:44;98043.78;;;16.53;100.00
4398;BME280;2213;49.720;7.296;2023-09-19T09:49:48;98043.78;;;16.53;100.00
4398;BME280;2213;49.720;7.296;2023-09-19T09:52:23;98043.50;;;16.62;100.00
4398;BME280;2213;49.720;7.296;2023-09-19T09:55:02;98043.50;;;16.62;100.00
4398;BME280;2213;49.720;7.296;2023-09-19T09:57:35;98047.66;;;16.69;100.00
4398;BME280;2213;49.720;7.296;2023-09-19T10:00:10;98044.22;;;16.69;100.00
4398;BME280;2213;49.720;7.296;2023-09-19T10:02:49;98046.97;;;16.74;100.00
4398;BME280;2213;49.720;7.296;2023-09-19T10:05:20;98048.13;;;16.78;100.00
4398;BME280;2213;49.720;7.296;2023-09-19T10:08:10;98050.31;;;16.81;100.00
4398;BME280;2213;49.720;7.296;2023-09-19T10:10:43;98046.19;;;16.85;100.00
4398;BME280;2213;49.720;7.296;2023-09-19T10:13:22;98043.69;;;16.90;100.00
4398;BME280;2213;49.720;7.296;2023-09-19T10:15:56;98027.94;;;16.95;100.00
4398;BME280;2213;49.720;7.296;2023-09-19T10:18:28;98036.00;;;17.00;100.00
4398;BME280;2213;49.720;7.296;2023-09-19T10:21:03;98042.56;;;17.09;100.00
4398;BME280;2213;49.720;7.296;2023-09-19T10:23:36;98042.69;;;17.14;100.00
4398;BME280;2213;49.720;7.296;2023-09-19T10:26:10;98033.47;;;17.17;100.00
4398;BME280;2213;49.720;7.296;2023-09-19T10:28:41;98038.09;;;17.21;100.00
4398;BME280;2213;49.720;7.296;2023-09-19T10:31:11;98026.59;;;17.27;100.00
4398;BME280;2213;49.720;7.296;2023-09-19T10:33:44;98025.09;;;17.31;100.00
4398;BME280;2213;49.720;7.296;2023-09-19T10:36:14;98033.47;;;17.40;100.00
4398;BME280;2213;49.720;7.296;2023-09-19T10:38:49;98024.53;;;17.41;100.00
4398;BME280;2213;49.720;7.296;2023-09-19T10:41:25;98029.13;;;17.45;100.00
4398;BME280;2213;49.720;7.296;2023-09-19T10:43:57;98024.88;;;17.44;98.11
4398;BME280;2213;49.720;7.296;2023-09-19T10:46:28;98022.22;;;17.44;98.81
4398;BME280;2213;49.720;7.296;2023-09-19T10:49:00;98025.31;;;17.41;96.37
4398;BME280;2213;49.720;7.296;2023-09-19T10:51:40;98021.19;;;17.45;97.36
4398;BME280;2213;49.720;7.296;2023-09-19T10:54:14;98012.44;;;17.56;99.55
4398;BME280;2213;49.720;7.296;2023-09-19T10:56:48;98022.59;;;17.59;98.18
4398;BME280;2213;49.720;7.296;2023-09-19T10:59:21;98010.47;;;17.64;99.34
4398;BME280;2213;49.720;7.296;2023-09-19T11:01:54;98013.72;;;17.66;99.13
4398;BME280;2213;49.720;7.296;2023-09-19T11:04:28;98007.72;;;17.70;100.00
4398;BME280;2213;49.720;7.296;2023-09-19T11:07:02;98015.91;;;17.69;97.98
4398;BME280;2213;49.720;7.296;2023-09-19T11:09:47;98009.47;;;17.65;97.10
4398;BME280;2213;49.720;7.296;2023-09-19T11:12:49;97993.94;;;17.68;96.58
4398;BME280;2213;49.720;7.296;2023-09-19T11:16:17;97999.22;;;17.68;98.64
4398;BME280;2213;49.720;7.296;2023-09-19T11:18:55;97990.59;;;17.73;97.11
4398;BME280;2213;49.720;7.296;2023-09-19T11:21:53;97984.63;;;17.66;95.02
4398;BME280;2213;49.720;7.296;2023-09-19T11:24:32;97985.78;;;17.70;96.23
4398;BME280;2213;49.720;7.296;2023-09-19T11:27:14;97990.59;;;17.73;95.24
4398;BME280;2213;49.720;7.296;2023-09-19T11:29:47;97980.00;;;17.73;92.76
4398;BME280;2213;49.720;7.296;2023-09-19T11:36:01;97975.72;;;17.83;93.92
4398;BME280;2213;49.720;7.296;2023-09-19T11:38:58;97980.28;;;17.88;93.00
4398;BME280;2213;49.720;7.296;2023-09-19T11:41:40;97977.66;;;17.88;91.00
4398;BME280;2213;49.720;7.296;2023-09-19T11:44:32;97984.34;;;17.90;91.90
4398;BME280;2213;49.720;7.296;2023-09-19T11:47:11;97979.38;;;17.94;91.99
4398;BME280;2213;49.720;7.296;2023-09-19T11:49:42;97979.47;;;17.99;92.19
4398;BME280;2213;49.720;7.296;2023-09-19T11:52:22;97982.78;;;18.06;94.54
4398;BME280;2213;49.720;7.296;2023-09-19T11:54:56;97976.44;;;18.07;92.71
4398;BME280;2213;49.720;7.296;2023-09-19T11:57:27;97979.16;;;18.12;92.32
4398;BME280;2213;49.720;7.296;2023-09-19T11:59:59;97976.84;;;18.16;90.12
4398;BME280;2213;49.720;7.296;2023-09-19T12:02:41;97970.06;;;18.20;89.58
4398;BME280;2213;49.720;7.296;2023-09-19T12:05:13;97980.00;;;18.29;90.50
4398;BME280;2213;49.720;7.296;2023-09-19T12:07:45;97973.78;;;18.35;89.45
4398;BME280;2213;49.720;7.296;2023-09-19T12:10:16;97973.78;;;18.35;87.40
4398;BME280;2213;49.720;7.296;2023-09-19T12:12:48;97972.81;;;18.41;87.40
4398;BME280;2213;49.720;7.296;2023-09-19T12:15:23;97961.75;;;18.44;87.28
4398;BME280;2213;49.720;7.296;2023-09-19T12:17:58;97970.03;;;18.48;88.78
4398;BME280;2213;49.720;7.296;2023-09-19T12:20:42;97961.53;;;18.46;86.68
4398;BME280;2213;49.720;7.296;2023-09-19T12:23:18;97968.41;;;18.47;87.05
4398;BME280;2213;49.720;7.296;2023-09-19T12:25:48;97966.13;;;18.50;86.82
4398;BME280;2213;49.720;7.296;2023-09-19T12:28:21;97968.19;;;18.48;85.71
4398;BME280;2213;49.720;7.296;2023-09-19T12:30:55;97966.91;;;18.51;86.63
4398;BME280;2213;49.720;7.296;2023-09-19T12:33:27;97962.97;;;18.53;86.68
4398;BME280;2213;49.720;7.296;2023-09-19T12:35:58;97955.63;;;18.55;87.42
4398;BME280;2213;49.720;7.296;2023-09-19T12:38:28;97956.75;;;18.59;87.46
4398;BME280;2213;49.720;7.296;2023-09-19T12:41:03;97963.09;;;18.58;86.83
4398;BME280;2213;49.720;7.296;2023-09-19T12:43:35;97968.00;;;18.67;88.63
4398;BME280;2213;49.720;7.296;2023-09-19T12:46:05;97957.94;;;18.69;87.40
4398;BME280;2213;49.720;7.296;2023-09-19T12:48:37;97959.78;;;18.68;87.38
4398;BME280;2213;49.720;7.296;2023-09-19T12:51:12;97950.25;;;18.67;87.30
4398;BME280;2213;49.720;7.296;2023-09-19T12:53:45;97953.78;;;18.73;88.57
4398;BME280;2213;49.720;7.296;2023-09-19T12:56:17;97962.75;;;18.72;87.48
4398;BME280;2213;49.720;7.296;2023-09-19T12:58:54;97961.00;;;18.77;88.84
4398;BME280;2213;49.720;7.296;2023-09-19T13:01:25;97965.34;;;18.83;90.87
4398;BME280;2213;49.720;7.296;2023-09-19T13:04:15;97948.47;;;18.89;89.12
4398;BME280;2213;49.720;7.296;2023-09-19T13:06:49;97954.66;;;18.95;89.24
4398;BME280;2213;49.720;7.296;2023-09-19T13:09:21;97955.75;;;18.99;89.43
4398;BME280;2213;49.720;7.296;2023-09-19T13:11:53;97956.81;;;18.98;88.24
4398;BME280;2213;49.720;7.296;2023-09-19T13:14:24;97939.63;;;19.00;88.79
4398;BME280;2213;49.720;7.296;2023-09-19T13:16:59;97951.59;;;19.03;88.17
4398;BME280;2213;49.720;7.296;2023-09-19T13:19:40;97950.28;;;19.05;87.97
4398;BME280;2213;49.720;7.296;2023-09-19T13:22:38;97951.19;;;19.11;88.78
4398;BME280;2213;49.720;7.296;2023-09-19T13:25:10;97959.19;;;19.16;89.54
4398;BME280;2213;49.720;7.296;2023-09-19T13:27:43;97948.13;;;19.19;87.60
4398;BME280;2213;49.720;7.296;2023-09-19T13:30:14;97946.88;;;19.27;88.11
4398;BME280;2213;49.720;7.296;2023-09-19T13:32:44;97941.34;;;19.28;90.38
4398;BME280;2213;49.720;7.296;2023-09-19T13:35:17;97943.09;;;19.39;91.76
4398;BME280;2213;49.720;7.296;2023-09-19T13:37:49;97945.81;;;19.44;90.62
4398;BME280;2213;49.720;7.296;2023-09-19T13:40:19;97940.91;;;19.53;90.91
4398;BME280;2213;49.720;7.296;2023-09-19T13:42:49;97938.56;;;19.56;89.94
4398;BME280;2213;49.720;7.296;2023-09-19T13:45:22;97935.94;;;19.62;88.64
4398;BME280;2213;49.720;7.296;2023-09-19T13:47:59;97925.63;;;19.65;86.92
4398;BME280;2213;49.720;7.296;2023-09-19T13:50:30;97925.59;;;19.82;86.67